Time;durP1;ratioP1;P1;durP2;ratioP2;P2;SDS_P1;SDS_P2;PMS_P1;PMS_P2;Temp;Humidity;BMP_temperature;BMP_pressure;BME280_temperature;BME280_humidity;BME280_pressure;Samples;Min_cycle;Max_cycle;Signal;HPM_P1;HPM_P2
2022/06/22 00:01:28;;;;;;;10.73;6.65;;;13.30;99.90;;;;;;5087482;27;20119;-83
2022/06/22 00:04:00;;;;;;;10.10;6.85;;;13.30;99.90;;;;;;5091983;27;20046;-83
2022/06/22 00:06:44;;;;;;;9.18;6.70;;;13.30;99.90;;;;;;5070996;28;20581;-83
2022/06/22 00:09:32;;;;;;;8.98;7.47;;;13.30;99.90;;;;;;5090067;27;20039;-82
2022/06/22 00:11:59;;;;;;;10.07;7.18;;;13.30;99.90;;;;;;5089790;27;20099;-82
2022/06/22 00:14:42;;;;;;;9.95;7.95;;;13.20;99.90;;;;;;5074836;28;20441;-82
2022/06/22 00:17:16;;;;;;;10.15;7.43;;;13.10;99.90;;;;;;5090222;28;20057;-83
2022/06/22 00:19:43;;;;;;;9.13;6.53;;;13.10;99.90;;;;;;5084570;28;20168;-83
2022/06/22 00:22:22;;;;;;;9.32;7.25;;;13.00;99.90;;;;;;5073223;28;20057;-83
2022/06/22 00:25:11;;;;;;;9.07;7.10;;;13.00;99.90;;;;;;5123579;28;20039;-83
2022/06/22 00:27:37;;;;;;;8.52;6.93;;;12.90;99.90;;;;;;5090007;28;20051;-83
2022/06/22 00:30:12;;;;;;;8.00;6.70;;;12.90;99.90;;;;;;5086322;28;20066;-83
2022/06/22 00:32:38;;;;;;;14.07;7.30;;;12.90;99.90;;;;;;5084223;28;20096;-83
2022/06/22 00:35:35;;;;;;;9.05;6.97;;;12.90;99.90;;;;;;5090666;28;20057;-83
2022/06/22 00:38:01;;;;;;;9.63;7.10;;;12.90;99.90;;;;;;5088897;28;20058;-83
2022/06/22 00:40:27;;;;;;;9.27;6.78;;;13.60;99.90;;;;;;5085006;28;20048;-82
2022/06/22 00:42:55;;;;;;;8.25;6.82;;;12.80;99.90;;;;;;5091154;28;20130;-83
2022/06/22 00:45:29;;;;;;;7.78;6.35;;;12.80;99.90;;;;;;5089450;28;20034;-83
2022/06/22 00:48:18;;;;;;;9.23;7.15;;;12.90;99.90;;;;;;5090806;28;20063;-83
2022/06/22 00:50:48;;;;;;;9.35;7.20;;;12.80;99.90;;;;;;5106230;28;20039;-83
2022/06/22 00:53:40;;;;;;;8.25;7.03;;;12.80;99.90;;;;;;5075197;28;20056;-83
2022/06/22 00:56:11;;;;;;;8.77;7.18;;;12.80;99.90;;;;;;5085126;28;20051;-83
2022/06/22 00:58:55;;;;;;;9.02;6.57;;;12.80;99.90;;;;;;5085429;28;20039;-83
2022/06/22 01:01:44;;;;;;;10.02;7.15;;;12.80;99.90;;;;;;5103967;28;20078;-82
2022/06/22 01:04:35;;;;;;;10.73;7.43;;;12.80;99.90;;;;;;5089018;27;20054;-83
2022/06/22 01:07:10;;;;;;;10.25;7.38;;;12.80;99.90;;;;;;5107329;27;20046;-82
2022/06/22 01:09:48;;;;;;;8.90;7.60;;;12.80;99.90;;;;;;5093176;27;20449;-82
2022/06/22 01:12:41;;;;;;;7.60;6.63;;;12.70;99.90;;;;;;5090151;27;20738;-83
2022/06/22 01:15:32;;;;;;;8.50;7.38;;;12.70;99.90;;;;;;5088722;27;20051;-83
2022/06/22 01:18:16;;;;;;;9.65;7.00;;;12.60;99.90;;;;;;5087393;27;20054;-83
2022/06/22 01:20:58;;;;;;;8.38;6.60;;;12.50;99.90;;;;;;5110177;27;20039;-83
2022/06/22 01:23:50;;;;;;;9.75;7.22;;;12.50;99.90;;;;;;5091882;27;20050;-82
2022/06/22 01:26:35;;;;;;;7.65;6.22;;;12.50;99.90;;;;;;5089640;27;20482;-83
2022/06/22 01:29:20;;;;;;;9.32;6.80;;;12.40;99.90;;;;;;5109618;27;20043;-83
2022/06/22 01:31:51;;;;;;;8.30;6.10;;;12.40;99.90;;;;;;5110085;27;20050;-83
2022/06/22 01:34:19;;;;;;;10.77;7.30;;;12.40;99.90;;;;;;5092074;27;20048;-83
2022/06/22 01:36:46;;;;;;;10.40;6.93;;;12.40;99.90;;;;;;5110647;27;20046;-83
2022/06/22 01:39:13;;;;;;;8.65;7.03;;;12.40;99.90;;;;;;5089276;27;20054;-83
2022/06/22 01:41:45;;;;;;;7.45;6.30;;;12.40;99.90;;;;;;5093213;27;20058;-83
2022/06/22 01:44:13;;;;;;;10.35;6.38;;;12.30;99.90;;;;;;5089075;27;20408;-83
2022/06/22 01:47:10;;;;;;;9.40;6.47;;;13.10;99.90;;;;;;5090042;27;20051;-82
2022/06/22 01:50:00;;;;;;;7.03;5.78;;;12.20;99.90;;;;;;5085733;27;20047;-82
2022/06/22 01:52:46;;;;;;;6.38;5.78;;;12.20;99.90;;;;;;5104966;28;20058;-82
2022/06/22 01:55:30;;;;;;;6.63;5.45;;;12.20;99.90;;;;;;5083986;28;20434;-82
2022/06/22 01:58:19;;;;;;;6.57;5.80;;;11.70;99.90;;;;;;5087744;28;20365;-83
2022/06/22 02:01:00;;;;;;;7.43;6.00;;;11.20;99.90;;;;;;5089790;28;20050;-83
2022/06/22 02:03:50;;;;;;;6.68;6.07;;;12.10;99.90;;;;;;5097348;28;20043;-83
2022/06/22 02:09:10;;;;;;;6.53;5.55;;;11.90;99.90;;;;;;5121284;27;20047;-83
2022/06/22 02:11:42;;;;;;;7.43;5.63;;;11.90;99.90;;;;;;5085372;28;20383;-83
2022/06/22 02:14:27;;;;;;;7.07;6.03;;;11.90;99.90;;;;;;5084890;28;20055;-83
2022/06/22 02:17:02;;;;;;;5.70;5.00;;;11.90;99.90;;;;;;5088320;28;20527;-84
2022/06/22 02:19:30;;;;;;;7.22;5.55;;;11.90;99.90;;;;;;5089386;28;20054;-83
2022/06/22 02:21:57;;;;;;;7.18;6.05;;;11.80;99.90;;;;;;5088819;28;20036;-83
2022/06/22 02:24:33;;;;;;;8.65;6.88;;;11.80;99.90;;;;;;5106763;28;20717;-83
2022/06/22 02:27:18;;;;;;;8.13;6.68;;;11.80;99.90;;;;;;5105510;28;20504;-83
2022/06/22 02:29:50;;;;;;;9.73;6.90;;;11.80;99.90;;;;;;5083668;28;20209;-82
2022/06/22 02:32:20;;;;;;;9.00;7.32;;;11.80;99.90;;;;;;5089640;28;20044;-83
2022/06/22 02:34:51;;;;;;;8.30;6.60;;;11.80;99.90;;;;;;5100926;28;20051;-83
2022/06/22 02:37:20;;;;;;;7.82;6.80;;;11.80;99.90;;;;;;5105266;28;20047;-82
2022/06/22 02:39:53;;;;;;;9.32;6.60;;;11.80;99.90;;;;;;5088963;28;20597;-83
2022/06/22 02:45:07;;;;;;;9.80;7.97;;;11.70;99.90;;;;;;5102291;28;20056;-83
2022/06/22 02:47:47;;;;;;;13.55;8.00;;;11.70;99.90;;;;;;5092050;28;20048;-83
2022/06/22 02:50:27;;;;;;;11.98;8.68;;;11.70;99.90;;;;;;5092916;28;20096;-83
2022/06/22 02:52:57;;;;;;;8.73;6.88;;;12.10;99.90;;;;;;5080922;28;20052;-82
2022/06/22 02:55:26;;;;;;;9.65;7.40;;;10.50;99.90;;;;;;5085955;28;20056;-83
2022/06/22 02:57:51;;;;;;;9.75;7.95;;;11.70;99.90;;;;;;5064801;28;20051;-83
2022/06/22 03:00:29;;;;;;;10.02;7.47;;;11.70;99.90;;;;;;5081254;28;20052;-82
2022/06/22 03:03:03;;;;;;;8.65;7.35;;;11.60;99.90;;;;;;5090755;28;20044;-83
2022/06/22 03:05:29;;;;;;;9.23;6.95;;;11.80;99.90;;;;;;5070582;28;20059;-83
2022/06/22 03:07:59;;;;;;;8.02;6.93;;;11.70;99.90;;;;;;5070897;28;20785;-83
2022/06/22 03:10:40;;;;;;;8.30;6.88;;;11.70;99.90;;;;;;5070669;28;20060;-83
2022/06/22 03:13:06;;;;;;;10.20;7.32;;;11.10;99.90;;;;;;5064525;28;20553;-83
2022/06/22 03:15:36;;;;;;;7.95;7.15;;;11.70;99.90;;;;;;5069965;28;20048;-83
2022/06/22 03:18:04;;;;;;;9.45;6.88;;;11.70;99.90;;;;;;5070329;28;20181;-83
2022/06/22 03:20:43;;;;;;;7.93;7.05;;;11.70;99.90;;;;;;5070984;28;20051;-83
2022/06/22 03:23:20;;;;;;;11.32;8.05;;;11.70;99.90;;;;;;5063429;28;20075;-83
2022/06/22 03:26:20;;;;;;;10.07;6.97;;;11.70;99.90;;;;;;5070402;28;20369;-83
2022/06/22 03:29:18;;;;;;;8.95;8.02;;;11.30;99.90;;;;;;5095450;28;20105;-83
2022/06/22 03:31:50;;;;;;;10.60;7.80;;;11.80;99.90;;;;;;5052492;28;20048;-83
2022/06/22 03:34:25;;;;;;;9.98;8.60;;;11.80;99.90;;;;;;5074384;28;20444;-83
2022/06/22 03:37:20;;;;;;;11.70;8.70;;;11.80;99.90;;;;;;5088752;28;20051;-83
2022/06/22 03:39:51;;;;;;;10.95;8.40;;;11.80;99.90;;;;;;5077115;28;20062;-83
2022/06/22 03:42:26;;;;;;;11.80;8.85;;;11.80;99.90;;;;;;5069107;28;20076;-83
2022/06/22 03:45:16;;;;;;;12.50;8.63;;;11.80;99.90;;;;;;5070680;28;20054;-83
2022/06/22 03:48:20;;;;;;;9.20;8.20;;;11.80;99.90;;;;;;5063463;28;20388;-83
2022/06/22 03:50:58;;;;;;;14.48;8.63;;;11.80;99.90;;;;;;5077807;28;20060;-83
2022/06/22 03:53:46;;;;;;;12.85;8.75;;;11.70;99.90;;;;;;5083593;27;20062;-83
2022/06/22 03:56:17;;;;;;;12.38;7.68;;;11.80;99.90;;;;;;5081723;27;20579;-83
2022/06/22 03:58:45;;;;;;;11.35;8.32;;;11.70;99.90;;;;;;5086455;27;20103;-83
2022/06/22 04:01:13;;;;;;;7.85;6.75;;;10.90;99.90;;;;;;5088933;27;20122;-83
2022/06/22 04:03:40;;;;;;;8.30;7.40;;;11.70;99.90;;;;;;5090025;27;20050;-83
2022/06/22 04:06:06;;;;;;;9.60;6.50;;;11.70;99.90;;;;;;5084869;28;20078;-83
2022/06/22 04:08:35;;;;;;;8.95;7.25;;;11.80;99.90;;;;;;5085767;27;20051;-83
2022/06/22 04:11:07;;;;;;;11.65;7.65;;;11.80;99.90;;;;;;5088159;28;20134;-83
2022/06/22 04:14:04;;;;;;;8.73;7.10;;;11.80;99.90;;;;;;5084404;28;20043;-82
2022/06/22 04:16:38;;;;;;;9.57;7.13;;;11.80;99.90;;;;;;5085645;28;20130;-83
2022/06/22 04:19:40;;;;;;;9.85;8.15;;;11.80;99.90;;;;;;5085730;28;20042;-83
2022/06/22 04:22:12;;;;;;;11.57;7.63;;;12.20;99.90;;;;;;5017417;28;20063;-83
2022/06/22 04:24:59;;;;;;;10.60;7.75;;;11.90;99.90;;;;;;5108816;28;20496;-82
2022/06/22 04:27:35;;;;;;;9.27;6.70;;;11.90;99.90;;;;;;5106298;28;20058;-83
2022/06/22 04:30:09;;;;;;;10.32;9.05;;;11.90;99.90;;;;;;5085354;28;20066;-83
2022/06/22 04:33:00;;;;;;;11.85;9.55;;;12.00;99.90;;;;;;5086341;28;20499;-83
2022/06/22 04:35:44;;;;;;;12.75;10.38;;;12.10;99.90;;;;;;5088714;28;20051;-84
2022/06/22 04:38:26;;;;;;;14.68;9.82;;;12.10;99.90;;;;;;5091191;27;20051;-84
2022/06/22 04:41:04;;;;;;;11.15;7.78;;;12.20;99.90;;;;;;5091116;27;20065;-84
2022/06/22 04:43:32;;;;;;;9.90;8.15;;;12.20;99.90;;;;;;5090377;27;20054;-84
2022/06/22 04:45:57;;;;;;;11.15;8.80;;;12.30;99.90;;;;;;5092507;27;20043;-84
2022/06/22 04:48:38;;;;;;;9.07;7.35;;;12.30;99.90;;;;;;5091801;27;20069;-83
2022/06/22 04:51:06;;;;;;;13.30;8.75;;;12.40;99.90;;;;;;5109170;27;20119;-84
2022/06/22 04:53:45;;;;;;;10.68;9.57;;;12.40;99.90;;;;;;5086131;27;20087;-84
2022/06/22 04:56:18;;;;;;;10.48;7.13;;;12.60;99.90;;;;;;5096689;27;20043;-84
2022/06/22 04:58:55;;;;;;;8.55;7.38;;;12.70;99.90;;;;;;5092964;27;20055;-83
2022/06/22 05:01:35;;;;;;;8.68;7.28;;;12.70;99.90;;;;;;5093757;27;20891;-84
2022/06/22 05:04:05;;;;;;;11.25;9.02;;;12.80;99.90;;;;;;5090676;27;20609;-83
2022/06/22 05:06:40;;;;;;;11.82;9.52;;;12.90;99.90;;;;;;5110181;27;20042;-84
2022/06/22 05:09:26;;;;;;;11.52;9.27;;;13.00;99.90;;;;;;5093253;27;20074;-84
2022/06/22 05:11:52;;;;;;;13.32;11.05;;;13.10;99.90;;;;;;5088520;27;20050;-84
2022/06/22 05:14:28;;;;;;;11.18;9.15;;;13.20;99.90;;;;;;5095353;27;20116;-84
2022/06/22 05:16:59;;;;;;;16.92;11.05;;;13.30;99.90;;;;;;5113313;27;20364;-83
2022/06/22 05:19:39;;;;;;;18.33;12.13;;;13.40;99.90;;;;;;5106640;27;20051;-84
2022/06/22 05:22:13;;;;;;;15.20;10.88;;;13.40;99.90;;;;;;5109925;27;20047;-84
2022/06/22 05:24:43;;;;;;;13.65;10.05;;;13.60;99.90;;;;;;5093712;27;20126;-84
2022/06/22 05:27:13;;;;;;;16.80;11.20;;;13.60;99.90;;;;;;5074332;27;20070;-84
2022/06/22 05:29:54;;;;;;;12.73;9.93;;;13.70;99.90;;;;;;5093230;27;20055;-84
2022/06/22 05:32:39;;;;;;;10.35;7.68;;;13.80;99.90;;;;;;5090580;27;20051;-84
2022/06/22 05:35:09;;;;;;;17.33;12.43;;;14.00;99.90;;;;;;5093589;27;20062;-84
2022/06/22 05:37:38;;;;;;;12.73;11.13;;;14.10;99.90;;;;;;5109263;27;20054;-84
2022/06/22 05:40:05;;;;;;;12.05;9.30;;;14.20;99.90;;;;;;5104681;27;20047;-83
2022/06/22 05:42:34;;;;;;;14.60;10.82;;;14.30;99.90;;;;;;5104431;27;20080;-84
2022/06/22 05:45:03;;;;;;;15.35;10.13;;;14.40;99.90;;;;;;5120571;27;20035;-84
2022/06/22 05:47:31;;;;;;;15.02;9.32;;;14.50;99.90;;;;;;5122139;27;20051;-84
2022/06/22 05:50:04;;;;;;;12.05;10.25;;;14.60;99.90;;;;;;5089289;27;20514;-84
2022/06/22 05:52:37;;;;;;;12.55;10.88;;;14.70;99.90;;;;;;5109063;27;20055;-84
2022/06/22 05:55:18;;;;;;;10.57;9.48;;;15.00;99.90;;;;;;5104780;27;20063;-84
2022/06/22 05:58:01;;;;;;;12.30;10.27;;;15.10;99.90;;;;;;5093624;27;20145;-85
2022/06/22 06:00:52;;;;;;;11.63;10.23;;;15.20;99.90;;;;;;5091294;27;20090;-84
2022/06/22 06:03:31;;;;;;;13.90;11.70;;;15.40;99.90;;;;;;5108806;27;20492;-84
2022/06/22 06:06:04;;;;;;;11.63;9.90;;;15.50;99.90;;;;;;5089879;27;20039;-84
2022/06/22 06:08:58;;;;;;;13.73;11.93;;;15.70;99.90;;;;;;5090927;27;20102;-83
2022/06/22 06:11:32;;;;;;;11.93;10.02;;;15.90;99.90;;;;;;5089177;27;20111;-84
2022/06/22 06:14:02;;;;;;;10.48;9.38;;;16.10;99.90;;;;;;5093634;27;20507;-85
2022/06/22 06:16:45;;;;;;;12.32;8.90;;;16.20;99.90;;;;;;5108475;27;20108;-84
2022/06/22 06:19:16;;;;;;;11.27;8.95;;;16.40;99.90;;;;;;5104917;27;20055;-84
2022/06/22 06:21:44;;;;;;;11.50;8.18;;;16.50;99.90;;;;;;5109569;27;20590;-84
2022/06/22 06:24:16;;;;;;;10.90;7.65;;;16.60;99.90;;;;;;5084221;27;20107;-84
2022/06/22 06:30:05;;;;;;;11.73;7.03;;;17.00;99.90;;;;;;5107451;27;20051;-86
2022/06/22 06:33:01;;;;;;;9.32;7.45;;;17.20;99.90;;;;;;5089214;27;20043;-84
2022/06/22 06:35:31;;;;;;;12.57;7.78;;;17.30;99.90;;;;;;5109560;27;20159;-84
2022/06/22 06:38:35;;;;;;;11.43;7.20;;;17.50;99.90;;;;;;5091086;27;20512;-85
2022/06/22 06:41:13;;;;;;;12.50;7.32;;;17.70;99.90;;;;;;5090936;27;20120;-84
2022/06/22 06:43:58;;;;;;;11.85;8.45;;;17.90;99.90;;;;;;5087012;27;20518;-84
2022/06/22 06:46:38;;;;;;;10.40;7.40;;;18.00;99.90;;;;;;5085719;27;20079;-85
2022/06/22 06:49:16;;;;;;;10.18;6.57;;;18.10;99.90;;;;;;5091552;27;20290;-85
2022/06/22 06:52:03;;;;;;;8.90;6.05;;;18.30;99.90;;;;;;5092263;27;20495;-85
2022/06/22 06:54:39;;;;;;;8.40;6.72;;;18.50;99.90;;;;;;5103655;27;20127;-85
2022/06/22 06:57:11;;;;;;;9.65;6.43;;;18.60;99.90;;;;;;5091314;27;20115;-85
2022/06/22 06:59:39;;;;;;;7.63;6.13;;;18.70;99.90;;;;;;5094117;27;20041;-85
2022/06/22 07:02:16;;;;;;;8.68;5.68;;;18.80;99.90;;;;;;5116288;27;20051;-87
2022/06/22 07:04:42;;;;;;;7.03;6.07;;;19.00;99.90;;;;;;5097392;27;20126;-88
2022/06/22 07:07:24;;;;;;;9.88;5.85;;;19.10;99.90;;;;;;5075293;27;20508;-85
2022/06/22 07:09:52;;;;;;;8.68;5.97;;;19.20;99.90;;;;;;5094112;27;20047;-85
2022/06/22 07:12:33;;;;;;;8.68;5.70;;;19.30;99.90;;;;;;5096170;27;20054;-85
2022/06/22 07:15:02;;;;;;;8.40;5.88;;;19.50;99.90;;;;;;5099021;27;20047;-86
2022/06/22 07:17:32;;;;;;;6.40;5.50;;;19.60;99.90;;;;;;5093410;27;20424;-86
2022/06/22 07:20:18;;;;;;;8.55;6.65;;;19.70;99.90;;;;;;5113175;27;20210;-86
2022/06/22 07:23:01;;;;;;;7.47;5.72;;;19.90;99.90;;;;;;5100042;27;20058;-86
2022/06/22 07:25:39;;;;;;;7.95;4.85;;;19.30;99.90;;;;;;5095713;27;20035;-85
2022/06/22 07:28:28;;;;;;;9.13;5.15;;;20.20;99.90;;;;;;5092741;27;20078;-87
2022/06/22 07:31:08;;;;;;;6.20;4.18;;;20.40;99.90;;;;;;5095717;27;20441;-87
2022/06/22 07:34:03;;;;;;;8.70;4.63;;;19.50;99.90;;;;;;5106555;27;20039;-87
2022/06/22 07:37:02;;;;;;;8.48;4.72;;;20.50;99.90;;;;;;5088387;27;20087;-84
2022/06/22 07:39:47;;;;;;;7.10;4.28;;;19.90;99.90;;;;;;5087853;27;20522;-88
2022/06/22 07:42:15;;;;;;;7.07;4.13;;;20.50;99.90;;;;;;5095370;27;20551;-86
2022/06/22 07:44:53;;;;;;;7.47;3.92;;;20.60;99.90;;;;;;5095809;27;20381;-89
2022/06/22 07:47:38;;;;;;;;;;;;;;;;;;;;;
2022/06/22 07:50:18;;;;;;;7.43;3.63;;;20.90;99.90;;;;;;5110789;27;20139;-88
2022/06/22 07:53:03;;;;;;;4.93;3.38;;;20.40;99.90;;;;;;5088508;27;20067;-89
2022/06/22 07:55:32;;;;;;;6.88;3.83;;;21.40;99.90;;;;;;5105335;27;20085;-85
2022/06/22 07:58:33;;;;;;;5.50;3.97;;;21.70;99.90;;;;;;5091826;27;20121;-89
2022/06/22 08:01:11;;;;;;;5.88;4.30;;;21.90;99.90;;;;;;5088266;27;20050;-86
2022/06/22 08:03:58;;;;;;;9.10;3.83;;;22.00;99.90;;;;;;5090438;27;20096;-86
2022/06/22 08:06:33;;;;;;;6.15;3.90;;;22.10;99.90;;;;;;5103948;28;20434;-87
2022/06/22 08:09:06;;;;;;;6.38;3.80;;;22.10;99.90;;;;;;5101567;27;20090;-85
2022/06/22 08:11:38;;;;;;;5.80;3.67;;;22.50;99.90;;;;;;5088919;28;20043;-85
2022/06/22 08:14:28;;;;;;;7.47;3.13;;;22.80;99.90;;;;;;5090720;28;20758;-86
2022/06/22 08:17:03;;;;;;;6.63;2.90;;;23.00;99.90;;;;;;5083730;27;20139;-85
2022/06/22 08:19:31;;;;;;;5.53;2.80;;;23.30;99.90;;;;;;5098689;28;20047;-87
2022/06/22 08:22:04;;;;;;;5.63;3.05;;;23.60;99.90;;;;;;5088038;28;20493;-86
2022/06/22 08:24:33;;;;;;;5.75;2.92;;;23.90;99.90;;;;;;5083721;28;20054;-87
2022/06/22 08:27:03;;;;;;;5.78;2.75;;;23.90;99.90;;;;;;5087609;28;20130;-87
2022/06/22 08:29:31;;;;;;;7.43;3.25;;;23.90;99.90;;;;;;5086314;28;20251;-87
2022/06/22 08:32:35;;;;;;;5.10;2.50;;;23.80;99.90;;;;;;5092157;28;20047;-87
2022/06/22 08:35:17;;;;;;;6.35;2.67;;;23.90;99.90;;;;;;5090739;28;20054;-87
2022/06/22 08:37:49;;;;;;;6.78;2.38;;;24.10;99.90;;;;;;5099336;28;20116;-88
2022/06/22 08:40:42;;;;;;;4.63;2.88;;;24.30;99.90;;;;;;5095902;28;20058;-86
2022/06/22 08:43:17;;;;;;;4.70;2.10;;;24.30;99.90;;;;;;5115467;28;20079;-86
2022/06/22 08:46:14;;;;;;;4.27;2.30;;;24.30;99.70;;;;;;5099286;28;20051;-87
2022/06/22 08:48:55;;;;;;;7.78;2.38;;;24.40;99.60;;;;;;5096573;28;20078;-83
2022/06/22 08:51:42;;;;;;;6.93;2.25;;;24.30;98.60;;;;;;5099444;28;20109;-84
2022/06/22 08:55:00;;;;;;;5.00;2.45;;;24.50;99.10;;;;;;5092439;28;20051;-85
2022/06/22 08:57:43;;;;;;;5.88;2.17;;;24.80;98.50;;;;;;5044312;28;20049;-85
2022/06/22 09:00:28;;;;;;;6.63;2.50;;;25.20;98.60;;;;;;5086022;28;20824;-87
2022/06/22 09:03:34;;;;;;;7.00;2.83;;;25.50;97.80;;;;;;5111238;28;20039;-89
2022/06/22 09:06:22;;;;;;;4.35;2.58;;;25.80;97.10;;;;;;5091022;28;20063;-89
2022/06/22 09:13:08;;;;;;;3.58;2.00;;;25.90;96.50;;;;;;5084988;28;20078;-88
2022/06/22 09:16:00;;;;;;;5.05;1.85;;;26.20;95.60;;;;;;5091643;28;20066;-93
2022/06/22 09:18:35;;;;;;;4.47;1.95;;;26.30;95.30;;;;;;5102833;28;20389;-87
2022/06/22 09:21:47;;;;;;;3.78;1.90;;;26.50;95.90;;;;;;5091017;28;20047;-88
2022/06/22 09:24:36;;;;;;;4.03;1.95;;;26.70;92.80;;;;;;5091829;27;20104;-85
2022/06/22 09:27:20;;;;;;;5.15;2.05;;;26.80;93.10;;;;;;5093033;27;20059;-86
2022/06/22 09:30:22;;;;;;;;;;;;;;;;;;;;;
2022/06/22 09:32:54;;;;;;;5.03;1.88;;;26.60;91.00;;;;;;5108086;27;20077;-84
2022/06/22 09:35:52;;;;;;;4.68;1.85;;;26.60;91.70;;;;;;5110754;27;20142;-84
2022/06/22 09:38:46;;;;;;;4.80;1.80;;;26.80;90.10;;;;;;5092818;27;20062;-89
2022/06/22 09:41:48;;;;;;;4.82;1.63;;;27.00;89.60;;;;;;5089838;27;20071;-92
2022/06/22 09:48:47;;;;;;;3.75;1.60;;;27.30;85.60;;;;;;5015774;28;20045;-87
2022/06/22 09:51:32;;;;;;;3.38;1.55;;;27.70;85.00;;;;;;5015615;28;20056;-92
2022/06/22 09:58:00;;;;;;;4.80;1.60;;;27.60;82.50;;;;;;4897013;29;20048;-86
2022/06/22 10:00:47;;;;;;;4.38;2.00;;;27.80;84.20;;;;;;5008860;28;20105;-88
2022/06/22 10:03:22;;;;;;;4.47;2.05;;;28.00;85.10;;;;;;5078463;28;20493;-91
2022/06/22 10:06:18;;;;;;;4.13;1.50;;;28.30;84.70;;;;;;5091238;28;20055;-90
2022/06/22 10:09:08;;;;;;;4.03;1.58;;;28.50;83.10;;;;;;5091718;28;20051;-88
2022/06/22 10:12:09;;;;;;;3.42;1.67;;;28.90;81.30;;;;;;5101789;28;20066;-89
2022/06/22 10:18:46;;;;;;;3.88;1.73;;;29.70;80.00;;;;;;5110253;28;20056;-88
2022/06/22 10:21:52;;;;;;;5.80;2.43;;;29.50;76.20;;;;;;5090573;28;20057;-93
2022/06/22 10:24:40;;;;;;;5.05;2.05;;;28.90;73.90;;;;;;5083918;28;20051;-85
2022/06/22 10:27:51;;;;;;;5.68;2.33;;;28.90;74.90;;;;;;5085712;28;20508;-86
2022/06/22 10:30:23;;;;;;;4.40;1.90;;;29.00;74.60;;;;;;5089115;28;20112;-86
2022/06/22 10:32:59;;;;;;;5.80;2.20;;;29.10;76.90;;;;;;5087919;28;20079;-86
2022/06/22 10:35:57;;;;;;;5.07;2.60;;;29.30;77.00;;;;;;5081220;28;20052;-87
2022/06/22 10:38:45;;;;;;;5.10;2.28;;;29.60;75.60;;;;;;5105984;28;20118;-87
2022/06/22 10:47:44;;;;;;;5.07;2.28;;;29.90;75.30;;;;;;5103674;28;20050;-87
2022/06/22 10:50:34;;;;;;;4.70;2.33;;;30.20;76.30;;;;;;5091504;28;20040;-86
2022/06/22 10:53:24;;;;;;;5.03;2.00;;;30.00;72.70;;;;;;5100415;28;20440;-87
2022/06/22 10:56:34;;;;;;;5.30;2.10;;;30.10;75.40;;;;;;5065913;28;20142;-86
2022/06/22 10:59:32;;;;;;;6.93;2.90;;;30.20;74.00;;;;;;5049252;28;20054;-86
2022/06/22 11:02:36;;;;;;;5.45;2.40;;;30.00;73.40;;;;;;5083901;28;20043;-85
2022/06/22 11:05:27;;;;;;;5.75;2.10;;;29.50;74.30;;;;;;5089998;28;20142;-88
2022/06/22 11:08:28;;;;;;;5.15;2.65;;;29.40;75.90;;;;;;5090967;28;20117;-86
2022/06/22 11:11:18;;;;;;;;;;;;;;;;;;;;;
2022/06/22 11:13:56;;;;;;;4.93;2.30;;;28.70;76.60;;;;;;5094764;28;20055;-86
2022/06/22 11:16:53;;;;;;;5.65;2.55;;;28.70;77.90;;;;;;5083939;28;20051;-86
2022/06/22 11:19:42;;;;;;;4.60;1.92;;;29.00;77.60;;;;;;5070630;28;20070;-87
2022/06/22 11:22:32;;;;;;;5.85;2.63;;;29.30;77.60;;;;;;5061984;28;20055;-84
2022/06/22 11:31:20;;;;;;;4.95;2.17;;;30.00;75.90;;;;;;5084122;28;20041;-85
2022/06/22 11:34:04;;;;;;;5.17;2.20;;;30.10;76.80;;;;;;5065369;28;20044;-85
2022/06/22 11:37:15;;;;;;;6.32;1.90;;;30.30;76.50;;;;;;5072395;28;20040;-86
2022/06/22 11:39:50;;;;;;;4.57;1.83;;;30.20;74.40;;;;;;5069205;28;20032;-83
2022/06/22 11:42:22;;;;;;;;;;;30.40;76.10;;;;;;5066551;28;20071;-84
2022/06/22 11:48:13;;;;;;;5.18;2.30;;;30.40;75.20;;;;;;5089139;28;20044;-85
2022/06/22 11:50:49;;;;;;;4.35;2.10;;;30.30;75.00;;;;;;5072269;28;20058;-84
2022/06/22 11:53:24;;;;;;;6.00;2.28;;;30.30;74.70;;;;;;5082223;27;20416;-84
2022/06/22 11:55:55;;;;;;;4.45;2.05;;;30.40;74.10;;;;;;5087170;27;20047;-85
2022/06/22 11:59:11;;;;;;;3.25;1.92;;;30.40;74.80;;;;;;5089316;27;20047;-84
2022/06/22 12:01:52;;;;;;;4.95;2.28;;;30.60;74.00;;;;;;5044704;28;20049;-84
2022/06/22 12:04:55;;;;;;;5.68;2.13;;;30.60;73.90;;;;;;5014499;28;20100;-87
2022/06/22 12:07:51;;;;;;;5.50;2.30;;;30.30;73.60;;;;;;5090100;27;20051;-86
2022/06/22 12:10:40;;;;;;;5.55;1.90;;;30.70;73.40;;;;;;5094263;27;20074;-86
2022/06/22 12:13:18;;;;;;;7.10;3.00;;;30.90;73.50;;;;;;5084883;27;20126;-85
2022/06/22 12:16:16;;;;;;;5.00;1.80;;;30.90;73.40;;;;;;5108783;27;20038;-86
2022/06/22 12:19:20;;;;;;;4.30;1.75;;;31.00;73.60;;;;;;5107142;28;20047;-85
2022/06/22 12:21:51;;;;;;;6.05;2.30;;;31.20;72.70;;;;;;5098718;28;20169;-86
2022/06/22 12:24:45;;;;;;;5.65;2.13;;;31.20;72.60;;;;;;5091841;28;20047;-85
2022/06/22 12:27:26;;;;;;;4.40;2.20;;;31.10;70.30;;;;;;5102813;28;20092;-85
2022/06/22 12:30:13;;;;;;;5.43;2.80;;;30.00;70.70;;;;;;5086525;28;20051;-84
2022/06/22 12:33:07;;;;;;;5.25;2.30;;;30.80;71.80;;;;;;5088794;28;20055;-84
2022/06/22 12:35:36;;;;;;;5.68;2.30;;;30.70;71.70;;;;;;5034828;28;20060;-85
2022/06/22 12:38:34;;;;;;;4.40;2.00;;;30.80;72.00;;;;;;5101711;28;21264;-85
2022/06/22 12:41:17;;;;;;;4.18;2.20;;;30.70;70.20;;;;;;5079733;28;20251;-86
2022/06/22 12:43:55;;;;;;;5.57;2.42;;;30.60;70.60;;;;;;5084183;28;20127;-85
2022/06/22 12:46:53;;;;;;;5.20;2.45;;;30.50;71.50;;;;;;5090150;28;20126;-85
2022/06/22 12:49:49;;;;;;;4.88;2.28;;;30.40;70.50;;;;;;5057706;28;20055;-85
2022/06/22 12:53:01;;;;;;;4.13;1.90;;;30.30;71.50;;;;;;5081403;28;20056;-84
2022/06/22 12:55:36;;;;;;;4.65;1.88;;;30.50;70.60;;;;;;5071873;28;20047;-85
2022/06/22 12:58:27;;;;;;;4.55;2.17;;;30.70;71.20;;;;;;5084128;28;20040;-84
2022/06/22 13:00:57;;;;;;;4.43;1.80;;;30.80;70.70;;;;;;5085189;28;20044;-84
2022/06/22 13:03:28;;;;;;;4.60;1.88;;;30.80;70.20;;;;;;5088028;28;20044;-83
2022/06/22 13:05:55;;;;;;;5.15;1.48;;;30.90;69.80;;;;;;5105967;28;20553;-82
2022/06/22 13:08:29;;;;;;;3.67;1.63;;;31.00;70.00;;;;;;5070581;28;20131;-82
2022/06/22 13:11:06;;;;;;;3.95;1.65;;;31.10;68.50;;;;;;5084294;28;20070;-82
2022/06/22 13:13:51;;;;;;;4.60;1.65;;;31.00;68.30;;;;;;5103532;28;20459;-83
2022/06/22 13:16:28;;;;;;;5.30;1.95;;;31.00;67.00;;;;;;5088155;28;20051;-82
2022/06/22 13:19:36;;;;;;;3.10;1.50;;;31.10;67.80;;;;;;5103475;28;20056;-83
2022/06/22 13:22:18;;;;;;;5.32;2.00;;;30.90;67.50;;;;;;5072561;28;20095;-83
2022/06/22 13:24:55;;;;;;;3.50;1.50;;;30.80;67.80;;;;;;5104051;28;20090;-83
2022/06/22 13:27:37;;;;;;;4.07;1.70;;;30.50;68.00;;;;;;5084853;28;20047;-84
2022/06/22 13:30:22;;;;;;;4.13;1.75;;;30.50;66.60;;;;;;5106607;28;20051;-84
2022/06/22 13:33:23;;;;;;;3.57;1.40;;;30.30;66.80;;;;;;5085378;28;20401;-83
2022/06/22 13:35:58;;;;;;;3.35;1.90;;;30.40;67.50;;;;;;5086767;28;20039;-82
2022/06/22 13:38:41;;;;;;;4.53;1.35;;;30.40;67.70;;;;;;5088822;28;20096;-82
2022/06/22 13:41:32;;;;;;;3.70;1.50;;;30.50;67.50;;;;;;5088137;28;20061;-82
2022/06/22 13:44:35;;;;;;;3.30;1.50;;;30.40;67.20;;;;;;5082772;28;20172;-82
2022/06/22 13:47:10;;;;;;;2.63;1.30;;;30.60;67.20;;;;;;5103285;28;20051;-84
2022/06/22 13:50:12;;;;;;;4.50;1.40;;;30.60;66.70;;;;;;5106219;28;20074;-83
2022/06/22 13:52:44;;;;;;;6.35;1.45;;;30.50;67.20;;;;;;5103384;28;20257;-83
2022/06/22 13:55:25;;;;;;;3.05;1.35;;;30.30;67.00;;;;;;5086961;28;20048;-83
2022/06/22 13:58:01;;;;;;;3.08;1.50;;;30.30;67.60;;;;;;5087395;28;20042;-83
2022/06/22 14:00:44;;;;;;;3.45;1.27;;;30.30;68.10;;;;;;5089034;28;20039;-83
2022/06/22 14:03:28;;;;;;;3.83;1.50;;;30.30;68.30;;;;;;5090917;28;20048;-83
2022/06/22 14:06:23;;;;;;;3.22;1.80;;;30.30;67.70;;;;;;5104515;28;20392;-84
2022/06/22 14:09:01;;;;;;;3.30;1.60;;;30.20;66.70;;;;;;5087317;28;20188;-83
2022/06/22 14:11:27;;;;;;;2.53;1.38;;;30.00;67.70;;;;;;5088619;28;20058;-83
2022/06/22 14:14:17;;;;;;;3.00;1.45;;;30.10;68.20;;;;;;5087987;28;20044;-84
2022/06/22 14:16:55;;;;;;;3.42;1.52;;;30.20;68.20;;;;;;5107468;28;20488;-86
2022/06/22 14:19:43;;;;;;;3.63;1.48;;;30.30;68.40;;;;;;5102901;28;20043;-83
2022/06/22 14:22:27;;;;;;;4.57;1.50;;;30.40;66.80;;;;;;5087896;28;20752;-85
2022/06/22 14:24:57;;;;;;;4.13;1.35;;;30.30;67.60;;;;;;5089343;28;20485;-84
2022/06/22 14:27:23;;;;;;;2.40;1.35;;;30.30;68.00;;;;;;5090248;28;20093;-85
2022/06/22 14:30:13;;;;;;;3.45;1.77;;;30.40;67.60;;;;;;5109181;28;20472;-86
2022/06/22 14:33:04;;;;;;;3.72;1.60;;;30.40;67.10;;;;;;5109382;28;20127;-84
2022/06/22 14:35:43;;;;;;;3.05;1.10;;;30.40;66.60;;;;;;5106123;28;20173;-85
2022/06/22 14:38:22;;;;;;;3.38;1.40;;;30.40;66.40;;;;;;5092367;28;20051;-85
2022/06/22 14:41:23;;;;;;;3.28;1.65;;;30.30;65.50;;;;;;5092748;28;20054;-85